sensor_id;sensor_type;location;lat;lon;timestamp;P1;durP1;ratioP1;P2;durP2;ratioP2
74799;SDS011;63326;45.088;7.658;2023-10-08T00:01:20;23.90;;;11.32;;
74799;SDS011;63326;45.088;7.658;2023-10-08T00:03:48;24.02;;;12.20;;
74799;SDS011;63326;45.088;7.658;2023-10-08T00:06:19;21.65;;;11.40;;
74799;SDS011;63326;45.088;7.658;2023-10-08T00:08:50;22.88;;;11.73;;
74799;SDS011;63326;45.088;7.658;2023-10-08T00:11:17;22.30;;;12.52;;
74799;SDS011;63326;45.088;7.658;2023-10-08T00:16:12;25.42;;;11.77;;
74799;SDS011;63326;45.088;7.658;2023-10-08T00:18:44;26.75;;;13.23;;
74799;SDS011;63326;45.088;7.658;2023-10-08T00:21:19;22.05;;;10.35;;
74799;SDS011;63326;45.088;7.658;2023-10-08T00:23:52;22.27;;;13.02;;
74799;SDS011;63326;45.088;7.658;2023-10-08T00:26:21;22.67;;;11.48;;
74799;SDS011;63326;45.088;7.658;2023-10-08T00:29:00;24.23;;;13.43;;
74799;SDS011;63326;45.088;7.658;2023-10-08T00:31:33;22.33;;;11.77;;
74799;SDS011;63326;45.088;7.658;2023-10-08T00:34:08;19.50;;;10.68;;
74799;SDS011;63326;45.088;7.658;2023-10-08T00:36:41;26.63;;;12.70;;
74799;SDS011;63326;45.088;7.658;2023-10-08T00:39:10;19.70;;;12.27;;
74799;SDS011;63326;45.088;7.658;2023-10-08T00:41:41;24.80;;;11.77;;
74799;SDS011;63326;45.088;7.658;2023-10-08T00:44:13;23.42;;;11.00;;
74799;SDS011;63326;45.088;7.658;2023-10-08T00:46:43;23.50;;;10.95;;
74799;SDS011;63326;45.088;7.658;2023-10-08T00:49:16;19.17;;;9.15;;
74799;SDS011;63326;45.088;7.658;2023-10-08T00:52:05;19.48;;;10.52;;
74799;SDS011;63326;45.088;7.658;2023-10-08T00:54:35;22.85;;;12.15;;
74799;SDS011;63326;45.088;7.658;2023-10-08T00:57:19;20.30;;;10.98;;
74799;SDS011;63326;45.088;7.658;2023-10-08T00:59:48;24.83;;;11.20;;
74799;SDS011;63326;45.088;7.658;2023-10-08T01:02:24;22.55;;;12.23;;
74799;SDS011;63326;45.088;7.658;2023-10-08T01:05:16;21.77;;;10.23;;
74799;SDS011;63326;45.088;7.658;2023-10-08T01:07:51;24.30;;;11.82;;
74799;SDS011;63326;45.088;7.658;2023-10-08T01:12:47;19.67;;;9.57;;
74799;SDS011;63326;45.088;7.658;2023-10-08T01:15:38;15.27;;;8.73;;
74799;SDS011;63326;45.088;7.658;2023-10-08T01:18:08;18.48;;;9.55;;
74799;SDS011;63326;45.088;7.658;2023-10-08T01:20:51;21.08;;;9.75;;
74799;SDS011;63326;45.088;7.658;2023-10-08T01:23:19;16.60;;;8.30;;
74799;SDS011;63326;45.088;7.658;2023-10-08T01:25:53;17.25;;;8.20;;
74799;SDS011;63326;45.088;7.658;2023-10-08T01:28:38;20.50;;;9.95;;
74799;SDS011;63326;45.088;7.658;2023-10-08T01:33:33;13.93;;;8.38;;
74799;SDS011;63326;45.088;7.658;2023-10-08T01:38:40;13.68;;;6.97;;
74799;SDS011;63326;45.088;7.658;2023-10-08T01:41:08;15.48;;;7.30;;
74799;SDS011;63326;45.088;7.658;2023-10-08T01:43:46;17.85;;;8.65;;
74799;SDS011;63326;45.088;7.658;2023-10-08T01:46:13;18.70;;;8.15;;
74799;SDS011;63326;45.088;7.658;2023-10-08T01:48:42;15.52;;;8.63;;
74799;SDS011;63326;45.088;7.658;2023-10-08T01:51:11;17.15;;;7.65;;
74799;SDS011;63326;45.088;7.658;2023-10-08T01:53:45;16.55;;;8.60;;
74799;SDS011;63326;45.088;7.658;2023-10-08T01:56:14;18.13;;;7.63;;
74799;SDS011;63326;45.088;7.658;2023-10-08T01:58:41;16.75;;;7.72;;
74799;SDS011;63326;45.088;7.658;2023-10-08T02:01:07;19.45;;;8.73;;
74799;SDS011;63326;45.088;7.658;2023-10-08T02:03:38;13.73;;;7.38;;
74799;SDS011;63326;45.088;7.658;2023-10-08T02:06:05;17.40;;;8.23;;
74799;SDS011;63326;45.088;7.658;2023-10-08T02:08:35;19.08;;;8.95;;
74799;SDS011;63326;45.088;7.658;2023-10-08T02:11:03;16.17;;;8.50;;
74799;SDS011;63326;45.088;7.658;2023-10-08T02:13:29;19.38;;;8.63;;
74799;SDS011;63326;45.088;7.658;2023-10-08T02:16:01;15.35;;;7.78;;
74799;SDS011;63326;45.088;7.658;2023-10-08T02:18:28;16.25;;;8.48;;
74799;SDS011;63326;45.088;7.658;2023-10-08T02:20:58;22.48;;;10.27;;
74799;SDS011;63326;45.088;7.658;2023-10-08T02:23:26;20.50;;;9.65;;
74799;SDS011;63326;45.088;7.658;2023-10-08T02:25:54;22.83;;;8.60;;
74799;SDS011;63326;45.088;7.658;2023-10-08T02:28:21;18.85;;;9.27;;
74799;SDS011;63326;45.088;7.658;2023-10-08T02:30:50;19.17;;;9.52;;
74799;SDS011;63326;45.088;7.658;2023-10-08T02:33:17;23.88;;;11.05;;
74799;SDS011;63326;45.088;7.658;2023-10-08T02:35:44;24.15;;;11.13;;
74799;SDS011;63326;45.088;7.658;2023-10-08T02:38:14;20.45;;;11.25;;
74799;SDS011;63326;45.088;7.658;2023-10-08T02:40:48;27.48;;;13.60;;
74799;SDS011;63326;45.088;7.658;2023-10-08T02:43:15;27.55;;;12.20;;
74799;SDS011;63326;45.088;7.658;2023-10-08T02:45:43;23.85;;;11.40;;
74799;SDS011;63326;45.088;7.658;2023-10-08T02:48:14;24.17;;;12.05;;
74799;SDS011;63326;45.088;7.658;2023-10-08T02:50:42;28.42;;;11.82;;
74799;SDS011;63326;45.088;7.658;2023-10-08T02:53:13;21.33;;;12.90;;
74799;SDS011;63326;45.088;7.658;2023-10-08T02:55:49;22.80;;;10.40;;
74799;SDS011;63326;45.088;7.658;2023-10-08T02:58:16;26.52;;;12.23;;
74799;SDS011;63326;45.088;7.658;2023-10-08T03:00:47;25.10;;;12.88;;
74799;SDS011;63326;45.088;7.658;2023-10-08T03:03:15;21.52;;;11.68;;
74799;SDS011;63326;45.088;7.658;2023-10-08T03:05:47;20.65;;;10.13;;
74799;SDS011;63326;45.088;7.658;2023-10-08T03:08:16;26.52;;;12.68;;
74799;SDS011;63326;45.088;7.658;2023-10-08T03:10:48;31.00;;;12.23;;
74799;SDS011;63326;45.088;7.658;2023-10-08T03:13:29;23.02;;;10.50;;
74799;SDS011;63326;45.088;7.658;2023-10-08T03:15:56;25.15;;;12.40;;
74799;SDS011;63326;45.088;7.658;2023-10-08T03:18:35;30.13;;;13.27;;
74799;SDS011;63326;45.088;7.658;2023-10-08T03:21:03;24.35;;;12.80;;
74799;SDS011;63326;45.088;7.658;2023-10-08T03:23:31;32.30;;;13.93;;
74799;SDS011;63326;45.088;7.658;2023-10-08T03:26:03;24.40;;;12.48;;
74799;SDS011;63326;45.088;7.658;2023-10-08T03:29:00;30.30;;;13.70;;
74799;SDS011;63326;45.088;7.658;2023-10-08T03:31:32;25.88;;;12.13;;
74799;SDS011;63326;45.088;7.658;2023-10-08T03:34:19;27.67;;;14.05;;
74799;SDS011;63326;45.088;7.658;2023-10-08T03:36:47;25.45;;;12.93;;
74799;SDS011;63326;45.088;7.658;2023-10-08T03:39:17;29.52;;;13.00;;
74799;SDS011;63326;45.088;7.658;2023-10-08T03:41:46;33.60;;;14.38;;
74799;SDS011;63326;45.088;7.658;2023-10-08T03:44:30;33.38;;;14.90;;
74799;SDS011;63326;45.088;7.658;2023-10-08T03:46:56;29.90;;;14.35;;
74799;SDS011;63326;45.088;7.658;2023-10-08T03:49:23;31.92;;;15.80;;
74799;SDS011;63326;45.088;7.658;2023-10-08T03:51:50;25.85;;;12.07;;
74799;SDS011;63326;45.088;7.658;2023-10-08T03:54:19;33.85;;;15.43;;
74799;SDS011;63326;45.088;7.658;2023-10-08T03:56:56;29.65;;;12.95;;
74799;SDS011;63326;45.088;7.658;2023-10-08T03:59:23;26.08;;;13.05;;
74799;SDS011;63326;45.088;7.658;2023-10-08T04:02:01;27.65;;;13.07;;
74799;SDS011;63326;45.088;7.658;2023-10-08T04:04:41;25.88;;;12.70;;
74799;SDS011;63326;45.088;7.658;2023-10-08T04:07:20;29.83;;;13.38;;
74799;SDS011;63326;45.088;7.658;2023-10-08T04:10:11;26.17;;;13.23;;
74799;SDS011;63326;45.088;7.658;2023-10-08T04:12:37;29.08;;;14.50;;
74799;SDS011;63326;45.088;7.658;2023-10-08T04:15:11;31.92;;;14.60;;
74799;SDS011;63326;45.088;7.658;2023-10-08T04:17:43;29.00;;;14.00;;
74799;SDS011;63326;45.088;7.658;2023-10-08T04:20:10;32.58;;;14.93;;
74799;SDS011;63326;45.088;7.658;2023-10-08T04:22:57;25.83;;;14.52;;
74799;SDS011;63326;45.088;7.658;2023-10-08T04:25:28;29.75;;;12.23;;
74799;SDS011;63326;45.088;7.658;2023-10-08T04:30:32;24.63;;;12.73;;
74799;SDS011;63326;45.088;7.658;2023-10-08T04:33:00;30.50;;;13.57;;
74799;SDS011;63326;45.088;7.658;2023-10-08T04:35:34;26.10;;;12.60;;
74799;SDS011;63326;45.088;7.658;2023-10-08T04:38:05;31.77;;;13.35;;
74799;SDS011;63326;45.088;7.658;2023-10-08T04:40:35;28.02;;;13.40;;
74799;SDS011;63326;45.088;7.658;2023-10-08T04:43:17;28.55;;;14.05;;
74799;SDS011;63326;45.088;7.658;2023-10-08T04:45:54;29.58;;;12.60;;
74799;SDS011;63326;45.088;7.658;2023-10-08T04:48:25;32.30;;;12.55;;
74799;SDS011;63326;45.088;7.658;2023-10-08T04:50:54;26.63;;;12.63;;
74799;SDS011;63326;45.088;7.658;2023-10-08T04:53:30;28.88;;;15.27;;
74799;SDS011;63326;45.088;7.658;2023-10-08T04:55:59;28.75;;;13.27;;
74799;SDS011;63326;45.088;7.658;2023-10-08T04:58:33;28.67;;;14.43;;
74799;SDS011;63326;45.088;7.658;2023-10-08T05:01:03;25.20;;;11.70;;
74799;SDS011;63326;45.088;7.658;2023-10-08T05:03:50;30.92;;;12.15;;
74799;SDS011;63326;45.088;7.658;2023-10-08T05:06:28;31.17;;;13.18;;
74799;SDS011;63326;45.088;7.658;2023-10-08T05:11:39;22.63;;;11.68;;
74799;SDS011;63326;45.088;7.658;2023-10-08T05:14:15;26.35;;;12.95;;
74799;SDS011;63326;45.088;7.658;2023-10-08T05:17:00;20.95;;;10.43;;
74799;SDS011;63326;45.088;7.658;2023-10-08T05:19:44;22.80;;;11.38;;
74799;SDS011;63326;45.088;7.658;2023-10-08T05:22:15;17.20;;;8.50;;
74799;SDS011;63326;45.088;7.658;2023-10-08T05:24:57;20.15;;;10.43;;
74799;SDS011;63326;45.088;7.658;2023-10-08T05:27:37;21.30;;;11.18;;
74799;SDS011;63326;45.088;7.658;2023-10-08T05:30:24;22.15;;;11.18;;
74799;SDS011;63326;45.088;7.658;2023-10-08T05:32:58;19.50;;;8.88;;
74799;SDS011;63326;45.088;7.658;2023-10-08T05:35:45;20.77;;;9.90;;
74799;SDS011;63326;45.088;7.658;2023-10-08T05:38:13;20.75;;;9.80;;
74799;SDS011;63326;45.088;7.658;2023-10-08T05:40:58;17.70;;;10.15;;
74799;SDS011;63326;45.088;7.658;2023-10-08T05:43:29;17.38;;;9.82;;
74799;SDS011;63326;45.088;7.658;2023-10-08T05:46:04;22.88;;;11.05;;
74799;SDS011;63326;45.088;7.658;2023-10-08T05:48:52;17.77;;;8.32;;
74799;SDS011;63326;45.088;7.658;2023-10-08T05:51:35;19.15;;;9.75;;
74799;SDS011;63326;45.088;7.658;2023-10-08T05:54:16;19.40;;;9.15;;
74799;SDS011;63326;45.088;7.658;2023-10-08T05:59:40;19.20;;;9.50;;
74799;SDS011;63326;45.088;7.658;2023-10-08T06:02:27;15.82;;;8.18;;
74799;SDS011;63326;45.088;7.658;2023-10-08T06:05:14;19.42;;;9.43;;
74799;SDS011;63326;45.088;7.658;2023-10-08T06:07:53;18.17;;;7.38;;
74799;SDS011;63326;45.088;7.658;2023-10-08T06:10:30;18.50;;;9.55;;
74799;SDS011;63326;45.088;7.658;2023-10-08T06:15:40;16.17;;;8.98;;
74799;SDS011;63326;45.088;7.658;2023-10-08T06:18:23;16.90;;;10.20;;
74799;SDS011;63326;45.088;7.658;2023-10-08T06:23:28;19.67;;;8.68;;
74799;SDS011;63326;45.088;7.658;2023-10-08T06:25:58;21.05;;;9.25;;
74799;SDS011;63326;45.088;7.658;2023-10-08T06:28:32;21.85;;;8.68;;
74799;SDS011;63326;45.088;7.658;2023-10-08T06:31:02;18.75;;;9.60;;
74799;SDS011;63326;45.088;7.658;2023-10-08T06:33:33;21.08;;;9.23;;
74799;SDS011;63326;45.088;7.658;2023-10-08T06:36:00;20.73;;;9.65;;
74799;SDS011;63326;45.088;7.658;2023-10-08T06:38:40;17.10;;;8.85;;
74799;SDS011;63326;45.088;7.658;2023-10-08T06:41:15;17.75;;;9.23;;
74799;SDS011;63326;45.088;7.658;2023-10-08T06:43:54;16.92;;;9.18;;
74799;SDS011;63326;45.088;7.658;2023-10-08T06:46:29;19.58;;;9.02;;
74799;SDS011;63326;45.088;7.658;2023-10-08T06:48:59;17.83;;;8.93;;
74799;SDS011;63326;45.088;7.658;2023-10-08T06:51:31;17.92;;;9.38;;
74799;SDS011;63326;45.088;7.658;2023-10-08T06:53:59;20.33;;;9.20;;
74799;SDS011;63326;45.088;7.658;2023-10-08T06:56:29;20.90;;;9.55;;
74799;SDS011;63326;45.088;7.658;2023-10-08T06:58:58;19.75;;;8.63;;
74799;SDS011;63326;45.088;7.658;2023-10-08T07:01:25;19.80;;;9.40;;
74799;SDS011;63326;45.088;7.658;2023-10-08T07:03:55;20.23;;;9.48;;
74799;SDS011;63326;45.088;7.658;2023-10-08T07:06:30;18.15;;;8.60;;
74799;SDS011;63326;45.088;7.658;2023-10-08T07:11:40;18.50;;;10.35;;
74799;SDS011;63326;45.088;7.658;2023-10-08T07:14:11;14.60;;;9.05;;
74799;SDS011;63326;45.088;7.658;2023-10-08T07:16:40;17.35;;;9.88;;
74799;SDS011;63326;45.088;7.658;2023-10-08T07:19:08;15.07;;;8.95;;
74799;SDS011;63326;45.088;7.658;2023-10-08T07:21:45;17.33;;;9.52;;
74799;SDS011;63326;45.088;7.658;2023-10-08T07:24:13;18.45;;;10.15;;
74799;SDS011;63326;45.088;7.658;2023-10-08T07:26:44;14.43;;;8.38;;
74799;SDS011;63326;45.088;7.658;2023-10-08T07:29:15;17.10;;;9.20;;
74799;SDS011;63326;45.088;7.658;2023-10-08T07:31:46;15.23;;;8.23;;
74799;SDS011;63326;45.088;7.658;2023-10-08T07:34:18;13.48;;;7.05;;
74799;SDS011;63326;45.088;7.658;2023-10-08T07:36:52;17.10;;;8.63;;
74799;SDS011;63326;45.088;7.658;2023-10-08T07:39:21;13.40;;;7.82;;
74799;SDS011;63326;45.088;7.658;2023-10-08T07:41:52;15.98;;;7.95;;
74799;SDS011;63326;45.088;7.658;2023-10-08T07:44:21;15.20;;;8.20;;
74799;SDS011;63326;45.088;7.658;2023-10-08T07:46:51;16.80;;;8.98;;
74799;SDS011;63326;45.088;7.658;2023-10-08T07:49:22;12.90;;;7.15;;
74799;SDS011;63326;45.088;7.658;2023-10-08T07:51:52;16.42;;;7.95;;
74799;SDS011;63326;45.088;7.658;2023-10-08T07:56:51;14.45;;;8.23;;
74799;SDS011;63326;45.088;7.658;2023-10-08T07:59:18;16.65;;;8.88;;
74799;SDS011;63326;45.088;7.658;2023-10-08T08:01:45;11.63;;;6.88;;
74799;SDS011;63326;45.088;7.658;2023-10-08T08:04:11;17.38;;;9.57;;
74799;SDS011;63326;45.088;7.658;2023-10-08T08:06:49;16.42;;;9.52;;
74799;SDS011;63326;45.088;7.658;2023-10-08T08:09:17;13.70;;;7.68;;
74799;SDS011;63326;45.088;7.658;2023-10-08T08:11:46;13.35;;;7.43;;
74799;SDS011;63326;45.088;7.658;2023-10-08T08:16:43;11.05;;;5.93;;
74799;SDS011;63326;45.088;7.658;2023-10-08T08:19:15;12.70;;;7.20;;
74799;SDS011;63326;45.088;7.658;2023-10-08T08:21:45;11.55;;;6.70;;
74799;SDS011;63326;45.088;7.658;2023-10-08T08:24:12;12.43;;;7.80;;
74799;SDS011;63326;45.088;7.658;2023-10-08T08:26:40;12.07;;;8.40;;
74799;SDS011;63326;45.088;7.658;2023-10-08T08:29:17;9.88;;;5.07;;
74799;SDS011;63326;45.088;7.658;2023-10-08T08:31:43;10.82;;;5.60;;
74799;SDS011;63326;45.088;7.658;2023-10-08T08:34:12;9.63;;;5.00;;
74799;SDS011;63326;45.088;7.658;2023-10-08T08:36:46;13.25;;;6.43;;
74799;SDS011;63326;45.088;7.658;2023-10-08T08:39:15;9.43;;;4.78;;
74799;SDS011;63326;45.088;7.658;2023-10-08T08:42:03;10.75;;;5.00;;
74799;SDS011;63326;45.088;7.658;2023-10-08T08:44:35;10.10;;;6.00;;
74799;SDS011;63326;45.088;7.658;2023-10-08T08:47:12;8.57;;;5.05;;
74799;SDS011;63326;45.088;7.658;2023-10-08T08:52:12;10.10;;;6.07;;
74799;SDS011;63326;45.088;7.658;2023-10-08T08:54:40;12.02;;;7.22;;
74799;SDS011;63326;45.088;7.658;2023-10-08T08:57:09;11.57;;;7.25;;
74799;SDS011;63326;45.088;7.658;2023-10-08T08:59:43;12.27;;;7.13;;
74799;SDS011;63326;45.088;7.658;2023-10-08T09:02:16;11.43;;;7.05;;
74799;SDS011;63326;45.088;7.658;2023-10-08T09:04:44;13.73;;;7.88;;
74799;SDS011;63326;45.088;7.658;2023-10-08T09:07:14;15.02;;;7.95;;
74799;SDS011;63326;45.088;7.658;2023-10-08T09:12:08;11.63;;;6.75;;
74799;SDS011;63326;45.088;7.658;2023-10-08T09:14:36;14.18;;;7.68;;
74799;SDS011;63326;45.088;7.658;2023-10-08T09:17:04;12.75;;;7.05;;
74799;SDS011;63326;45.088;7.658;2023-10-08T09:19:35;11.70;;;6.88;;
74799;SDS011;63326;45.088;7.658;2023-10-08T09:22:06;9.70;;;5.35;;
74799;SDS011;63326;45.088;7.658;2023-10-08T09:24:35;10.85;;;5.95;;
74799;SDS011;63326;45.088;7.658;2023-10-08T09:27:06;12.93;;;7.50;;
74799;SDS011;63326;45.088;7.658;2023-10-08T09:29:34;13.38;;;6.88;;
74799;SDS011;63326;45.088;7.658;2023-10-08T09:32:11;11.25;;;5.97;;
74799;SDS011;63326;45.088;7.658;2023-10-08T09:34:51;11.57;;;5.93;;
74799;SDS011;63326;45.088;7.658;2023-10-08T09:37:18;13.15;;;6.25;;
74799;SDS011;63326;45.088;7.658;2023-10-08T09:39:49;10.25;;;5.60;;
74799;SDS011;63326;45.088;7.658;2023-10-08T09:42:17;12.75;;;7.25;;
74799;SDS011;63326;45.088;7.658;2023-10-08T09:44:48;11.93;;;7.13;;
74799;SDS011;63326;45.088;7.658;2023-10-08T09:47:18;12.07;;;6.55;;
74799;SDS011;63326;45.088;7.658;2023-10-08T09:52:36;13.80;;;7.05;;
74799;SDS011;63326;45.088;7.658;2023-10-08T09:55:08;10.95;;;6.85;;
74799;SDS011;63326;45.088;7.658;2023-10-08T09:57:38;12.73;;;5.53;;
74799;SDS011;63326;45.088;7.658;2023-10-08T10:00:06;14.23;;;6.90;;
74799;SDS011;63326;45.088;7.658;2023-10-08T10:02:41;10.43;;;5.30;;
74799;SDS011;63326;45.088;7.658;2023-10-08T10:05:18;10.77;;;6.65;;
74799;SDS011;63326;45.088;7.658;2023-10-08T10:07:50;9.32;;;6.28;;
74799;SDS011;63326;45.088;7.658;2023-10-08T10:10:27;10.25;;;6.20;;
74799;SDS011;63326;45.088;7.658;2023-10-08T10:13:00;12.20;;;7.30;;
74799;SDS011;63326;45.088;7.658;2023-10-08T10:15:36;11.60;;;8.00;;
74799;SDS011;63326;45.088;7.658;2023-10-08T10:20:57;12.93;;;5.93;;
74799;SDS011;63326;45.088;7.658;2023-10-08T10:26:04;11.00;;;6.72;;
74799;SDS011;63326;45.088;7.658;2023-10-08T10:28:31;13.23;;;7.72;;
74799;SDS011;63326;45.088;7.658;2023-10-08T10:30:59;9.45;;;6.25;;
74799;SDS011;63326;45.088;7.658;2023-10-08T10:33:31;12.98;;;7.72;;
74799;SDS011;63326;45.088;7.658;2023-10-08T10:36:00;10.77;;;6.35;;
74799;SDS011;63326;45.088;7.658;2023-10-08T10:38:31;11.25;;;6.78;;
74799;SDS011;63326;45.088;7.658;2023-10-08T10:41:02;14.10;;;6.25;;
74799;SDS011;63326;45.088;7.658;2023-10-08T10:43:35;10.20;;;5.72;;
74799;SDS011;63326;45.088;7.658;2023-10-08T10:46:06;10.88;;;5.55;;
74799;SDS011;63326;45.088;7.658;2023-10-08T10:48:52;8.60;;;5.30;;
74799;SDS011;63326;45.088;7.658;2023-10-08T10:51:51;13.70;;;7.38;;
74799;SDS011;63326;45.088;7.658;2023-10-08T10:54:19;10.70;;;6.70;;
74799;SDS011;63326;45.088;7.658;2023-10-08T10:56:50;13.05;;;7.18;;
74799;SDS011;63326;45.088;7.658;2023-10-08T10:59:30;10.77;;;6.68;;
74799;SDS011;63326;45.088;7.658;2023-10-08T11:02:06;11.35;;;6.85;;
74799;SDS011;63326;45.088;7.658;2023-10-08T11:04:47;14.05;;;6.32;;
74799;SDS011;63326;45.088;7.658;2023-10-08T11:07:18;12.38;;;6.88;;
74799;SDS011;63326;45.088;7.658;2023-10-08T11:09:47;12.55;;;7.20;;
74799;SDS011;63326;45.088;7.658;2023-10-08T11:12:14;10.77;;;6.57;;
74799;SDS011;63326;45.088;7.658;2023-10-08T11:14:48;15.18;;;6.85;;
74799;SDS011;63326;45.088;7.658;2023-10-08T11:17:22;13.52;;;6.82;;
74799;SDS011;63326;45.088;7.658;2023-10-08T11:19:51;11.55;;;6.90;;
74799;SDS011;63326;45.088;7.658;2023-10-08T11:22:18;11.20;;;7.13;;
74799;SDS011;63326;45.088;7.658;2023-10-08T11:24:49;13.73;;;6.05;;
74799;SDS011;63326;45.088;7.658;2023-10-08T11:27:20;10.80;;;6.10;;
74799;SDS011;63326;45.088;7.658;2023-10-08T11:30:05;8.23;;;6.03;;
74799;SDS011;63326;45.088;7.658;2023-10-08T11:32:38;9.35;;;5.38;;
74799;SDS011;63326;45.088;7.658;2023-10-08T11:35:05;11.65;;;5.82;;
74799;SDS011;63326;45.088;7.658;2023-10-08T11:37:46;10.50;;;4.82;;
74799;SDS011;63326;45.088;7.658;2023-10-08T11:40:24;13.02;;;4.95;;
74799;SDS011;63326;45.088;7.658;2023-10-08T11:43:15;8.20;;;4.43;;
74799;SDS011;63326;45.088;7.658;2023-10-08T11:45:43;8.18;;;4.18;;
74799;SDS011;63326;45.088;7.658;2023-10-08T11:48:14;7.50;;;4.38;;
74799;SDS011;63326;45.088;7.658;2023-10-08T11:50:48;8.15;;;4.72;;
74799;SDS011;63326;45.088;7.658;2023-10-08T11:53:17;8.77;;;3.95;;
74799;SDS011;63326;45.088;7.658;2023-10-08T11:55:45;7.57;;;4.28;;
74799;SDS011;63326;45.088;7.658;2023-10-08T11:58:14;10.88;;;4.72;;
74799;SDS011;63326;45.088;7.658;2023-10-08T12:00:44;7.18;;;4.45;;
74799;SDS011;63326;45.088;7.658;2023-10-08T12:03:13;9.30;;;4.28;;
74799;SDS011;63326;45.088;7.658;2023-10-08T12:05:50;7.50;;;3.85;;
74799;SDS011;63326;45.088;7.658;2023-10-08T12:08:25;8.15;;;4.05;;
74799;SDS011;63326;45.088;7.658;2023-10-08T12:10:55;11.02;;;4.28;;
74799;SDS011;63326;45.088;7.658;2023-10-08T12:13:22;9.63;;;4.50;;
74799;SDS011;63326;45.088;7.658;2023-10-08T12:15:54;9.95;;;4.78;;
74799;SDS011;63326;45.088;7.658;2023-10-08T12:18:39;7.95;;;3.20;;
74799;SDS011;63326;45.088;7.658;2023-10-08T12:21:10;8.20;;;3.58;;
74799;SDS011;63326;45.088;7.658;2023-10-08T12:23:37;8.68;;;5.78;;
74799;SDS011;63326;45.088;7.658;2023-10-08T12:28:34;7.50;;;4.15;;
74799;SDS011;63326;45.088;7.658;2023-10-08T12:31:00;8.75;;;4.35;;
74799;SDS011;63326;45.088;7.658;2023-10-08T12:33:27;11.13;;;4.10;;
74799;SDS011;63326;45.088;7.658;2023-10-08T12:35:56;10.55;;;4.88;;
74799;SDS011;63326;45.088;7.658;2023-10-08T12:38:26;11.85;;;4.72;;
74799;SDS011;63326;45.088;7.658;2023-10-08T12:40:58;10.98;;;5.43;;
74799;SDS011;63326;45.088;7.658;2023-10-08T12:43:34;11.77;;;4.10;;
74799;SDS011;63326;45.088;7.658;2023-10-08T12:46:05;7.93;;;3.72;;
74799;SDS011;63326;45.088;7.658;2023-10-08T12:48:37;6.05;;;3.15;;
74799;SDS011;63326;45.088;7.658;2023-10-08T12:51:05;11.38;;;4.20;;
74799;SDS011;63326;45.088;7.658;2023-10-08T12:53:32;8.05;;;3.95;;
74799;SDS011;63326;45.088;7.658;2023-10-08T12:58:34;7.75;;;3.40;;
74799;SDS011;63326;45.088;7.658;2023-10-08T13:01:10;6.82;;;4.00;;
74799;SDS011;63326;45.088;7.658;2023-10-08T13:03:37;6.07;;;4.15;;
74799;SDS011;63326;45.088;7.658;2023-10-08T13:06:20;10.43;;;4.15;;
74799;SDS011;63326;45.088;7.658;2023-10-08T13:08:56;6.85;;;3.45;;
74799;SDS011;63326;45.088;7.658;2023-10-08T13:11:24;8.25;;;4.13;;
74799;SDS011;63326;45.088;7.658;2023-10-08T13:13:53;9.15;;;3.80;;
74799;SDS011;63326;45.088;7.658;2023-10-08T13:16:25;9.25;;;3.50;;
74799;SDS011;63326;45.088;7.658;2023-10-08T13:18:53;6.90;;;4.15;;
74799;SDS011;63326;45.088;7.658;2023-10-08T13:21:23;10.65;;;3.40;;
74799;SDS011;63326;45.088;7.658;2023-10-08T13:23:57;6.82;;;3.42;;
74799;SDS011;63326;45.088;7.658;2023-10-08T13:26:26;8.13;;;4.53;;
74799;SDS011;63326;45.088;7.658;2023-10-08T13:28:58;9.85;;;4.68;;
74799;SDS011;63326;45.088;7.658;2023-10-08T13:31:25;8.10;;;4.63;;
74799;SDS011;63326;45.088;7.658;2023-10-08T13:33:56;11.18;;;3.65;;
74799;SDS011;63326;45.088;7.658;2023-10-08T13:36:24;8.23;;;3.70;;
74799;SDS011;63326;45.088;7.658;2023-10-08T13:38:51;8.05;;;3.90;;
74799;SDS011;63326;45.088;7.658;2023-10-08T13:41:18;9.07;;;4.00;;
74799;SDS011;63326;45.088;7.658;2023-10-08T13:43:46;8.73;;;3.85;;
74799;SDS011;63326;45.088;7.658;2023-10-08T13:46:18;9.45;;;3.50;;
74799;SDS011;63326;45.088;7.658;2023-10-08T13:48:49;10.65;;;4.22;;
74799;SDS011;63326;45.088;7.658;2023-10-08T13:51:18;7.88;;;3.83;;
74799;SDS011;63326;45.088;7.658;2023-10-08T13:53:48;6.40;;;4.10;;
74799;SDS011;63326;45.088;7.658;2023-10-08T13:56:29;8.40;;;3.92;;
74799;SDS011;63326;45.088;7.658;2023-10-08T13:58:59;7.38;;;3.63;;
74799;SDS011;63326;45.088;7.658;2023-10-08T14:01:33;8.98;;;4.20;;
74799;SDS011;63326;45.088;7.658;2023-10-08T14:04:01;8.02;;;3.53;;
74799;SDS011;63326;45.088;7.658;2023-10-08T14:06:36;7.53;;;3.15;;
74799;SDS011;63326;45.088;7.658;2023-10-08T14:09:05;6.45;;;3.22;;
74799;SDS011;63326;45.088;7.658;2023-10-08T14:11:38;8.38;;;3.50;;
74799;SDS011;63326;45.088;7.658;2023-10-08T14:14:05;9.15;;;3.75;;
74799;SDS011;63326;45.088;7.658;2023-10-08T14:16:41;10.27;;;3.53;;
74799;SDS011;63326;45.088;7.658;2023-10-08T14:19:09;7.50;;;3.10;;
74799;SDS011;63326;45.088;7.658;2023-10-08T14:24:51;7.15;;;3.65;;
74799;SDS011;63326;45.088;7.658;2023-10-08T14:27:28;8.95;;;3.47;;
74799;SDS011;63326;45.088;7.658;2023-10-08T14:29:59;6.20;;;2.88;;
74799;SDS011;63326;45.088;7.658;2023-10-08T14:32:32;6.43;;;2.90;;
74799;SDS011;63326;45.088;7.658;2023-10-08T14:34:59;9.18;;;3.45;;
74799;SDS011;63326;45.088;7.658;2023-10-08T14:37:44;13.18;;;3.53;;
74799;SDS011;63326;45.088;7.658;2023-10-08T14:40:34;7.57;;;3.33;;
74799;SDS011;63326;45.088;7.658;2023-10-08T14:43:20;8.18;;;3.22;;
74799;SDS011;63326;45.088;7.658;2023-10-08T14:45:49;6.90;;;3.58;;
74799;SDS011;63326;45.088;7.658;2023-10-08T14:48:17;6.65;;;3.28;;
74799;SDS011;63326;45.088;7.658;2023-10-08T14:50:44;7.63;;;3.20;;
74799;SDS011;63326;45.088;7.658;2023-10-08T14:53:12;7.30;;;3.30;;
74799;SDS011;63326;45.088;7.658;2023-10-08T14:55:39;7.53;;;3.35;;
74799;SDS011;63326;45.088;7.658;2023-10-08T14:58:06;8.95;;;3.05;;
74799;SDS011;63326;45.088;7.658;2023-10-08T15:00:37;9.60;;;3.53;;
74799;SDS011;63326;45.088;7.658;2023-10-08T15:03:05;6.72;;;3.33;;
74799;SDS011;63326;45.088;7.658;2023-10-08T15:07:59;5.93;;;2.53;;
74799;SDS011;63326;45.088;7.658;2023-10-08T15:10:26;7.40;;;3.45;;
74799;SDS011;63326;45.088;7.658;2023-10-08T15:12:53;7.50;;;2.72;;
74799;SDS011;63326;45.088;7.658;2023-10-08T15:15:20;6.72;;;2.95;;
74799;SDS011;63326;45.088;7.658;2023-10-08T15:17:51;8.23;;;2.90;;
74799;SDS011;63326;45.088;7.658;2023-10-08T15:20:19;8.43;;;3.03;;
74799;SDS011;63326;45.088;7.658;2023-10-08T15:22:50;8.77;;;3.72;;
74799;SDS011;63326;45.088;7.658;2023-10-08T15:25:17;6.38;;;2.75;;
74799;SDS011;63326;45.088;7.658;2023-10-08T15:27:44;6.38;;;2.97;;
74799;SDS011;63326;45.088;7.658;2023-10-08T15:30:14;5.50;;;2.63;;
74799;SDS011;63326;45.088;7.658;2023-10-08T15:32:43;11.82;;;3.45;;
74799;SDS011;63326;45.088;7.658;2023-10-08T15:35:12;5.53;;;2.85;;
74799;SDS011;63326;45.088;7.658;2023-10-08T15:37:41;6.85;;;3.15;;
74799;SDS011;63326;45.088;7.658;2023-10-08T15:40:09;7.53;;;3.65;;
74799;SDS011;63326;45.088;7.658;2023-10-08T15:42:47;9.23;;;3.10;;
74799;SDS011;63326;45.088;7.658;2023-10-08T15:47:44;7.05;;;2.60;;
74799;SDS011;63326;45.088;7.658;2023-10-08T15:50:11;9.48;;;4.75;;
74799;SDS011;63326;45.088;7.658;2023-10-08T15:52:38;9.05;;;3.65;;
74799;SDS011;63326;45.088;7.658;2023-10-08T15:55:05;8.32;;;4.35;;
74799;SDS011;63326;45.088;7.658;2023-10-08T15:57:33;9.20;;;3.40;;
74799;SDS011;63326;45.088;7.658;2023-10-08T16:00:00;8.07;;;4.30;;